sensor_id;sensor_type;location;lat;lon;timestamp;pressure;altitude;pressure_sealevel;temperature;humidity
68580;BME280;55555;52.136;5.424;2023-01-16T00:01:49;99775.19;;;4.58;100.00
68580;BME280;55555;52.136;5.424;2023-01-16T00:04:17;99776.06;;;4.58;100.00
68580;BME280;55555;52.136;5.424;2023-01-16T00:06:45;99778.69;;;4.58;100.00
68580;BME280;55555;52.136;5.424;2023-01-16T00:09:12;99771.69;;;4.57;100.00
68580;BME280;55555;52.136;5.424;2023-01-16T00:11:39;99756.91;;;4.53;100.00
68580;BME280;55555;52.136;5.424;2023-01-16T00:14:06;99755.22;;;4.51;100.00
68580;BME280;55555;52.136;5.424;2023-01-16T00:16:33;99750.00;;;4.48;100.00
68580;BME280;55555;52.136;5.424;2023-01-16T00:19:01;99744.72;;;4.49;100.00
68580;BME280;55555;52.136;5.424;2023-01-16T00:21:28;99731.63;;;4.46;100.00
68580;BME280;55555;52.136;5.424;2023-01-16T00:23:57;99736.88;;;4.46;100.00
68580;BME280;55555;52.136;5.424;2023-01-16T00:26:26;99735.19;;;4.44;100.00
68580;BME280;55555;52.136;5.424;2023-01-16T00:28:54;99730.19;;;4.34;100.00
68580;BME280;55555;52.136;5.424;2023-01-16T00:31:21;99725.81;;;4.33;100.00
68580;BME280;55555;52.136;5.424;2023-01-16T00:33:50;99718.97;;;4.28;100.00
68580;BME280;55555;52.136;5.424;2023-01-16T00:36:18;99715.44;;;4.29;99.99
68580;BME280;55555;52.136;5.424;2023-01-16T00:38:46;99709.31;;;4.27;100.00
68580;BME280;55555;52.136;5.424;2023-01-16T00:41:13;99699.78;;;4.23;100.00
68580;BME280;55555;52.136;5.424;2023-01-16T00:43:41;99693.03;;;4.13;100.00
68580;BME280;55555;52.136;5.424;2023-01-16T00:46:08;99697.34;;;4.15;100.00
68580;BME280;55555;52.136;5.424;2023-01-16T00:48:36;99695.66;;;4.13;100.00
68580;BME280;55555;52.136;5.424;2023-01-16T00:51:03;99694.72;;;4.15;100.00
68580;BME280;55555;52.136;5.424;2023-01-16T00:53:30;99685.03;;;4.17;100.00
68580;BME280;55555;52.136;5.424;2023-01-16T00:55:58;99675.41;;;4.16;100.00
68580;BME280;55555;52.136;5.424;2023-01-16T00:58:25;99662.25;;;4.16;100.00
68580;BME280;55555;52.136;5.424;2023-01-16T01:00:52;99671.00;;;4.17;100.00
68580;BME280;55555;52.136;5.424;2023-01-16T01:03:19;99666.50;;;4.22;100.00
68580;BME280;55555;52.136;5.424;2023-01-16T01:05:46;99666.50;;;4.22;100.00
68580;BME280;55555;52.136;5.424;2023-01-16T01:08:14;99665.47;;;4.26;100.00
68580;BME280;55555;52.136;5.424;2023-01-16T01:10:41;99655.81;;;4.26;100.00
68580;BME280;55555;52.136;5.424;2023-01-16T01:13:08;99653.13;;;4.28;100.00
68580;BME280;55555;52.136;5.424;2023-01-16T01:15:35;99653.97;;;4.30;100.00
68580;BME280;55555;52.136;5.424;2023-01-16T01:18:03;99651.34;;;4.30;100.00
68580;BME280;55555;52.136;5.424;2023-01-16T01:20:39;99639.06;;;4.29;100.00
68580;BME280;55555;52.136;5.424;2023-01-16T01:23:07;99645.16;;;4.31;100.00
68580;BME280;55555;52.136;5.424;2023-01-16T01:25:37;99639.03;;;4.30;100.00
68580;BME280;55555;52.136;5.424;2023-01-16T01:28:04;99630.16;;;4.33;100.00
68580;BME280;55555;52.136;5.424;2023-01-16T01:30:32;99638.13;;;4.31;100.00
68580;BME280;55555;52.136;5.424;2023-01-16T01:32:59;99625.00;;;4.30;100.00
68580;BME280;55555;52.136;5.424;2023-01-16T01:35:26;99625.75;;;4.33;100.00
68580;BME280;55555;52.136;5.424;2023-01-16T01:37:53;99615.22;;;4.33;100.00
68580;BME280;55555;52.136;5.424;2023-01-16T01:40:20;99614.38;;;4.33;100.00
68580;BME280;55555;52.136;5.424;2023-01-16T01:42:47;99602.94;;;4.34;100.00
68580;BME280;55555;52.136;5.424;2023-01-16T01:45:22;99598.56;;;4.33;100.00
68580;BME280;55555;52.136;5.424;2023-01-16T01:50:50;99581.94;;;4.32;100.00
68580;BME280;55555;52.136;5.424;2023-01-16T01:53:43;99574.16;;;4.28;100.00
68580;BME280;55555;52.136;5.424;2023-01-16T01:56:32;99579.44;;;4.28;100.00
68580;BME280;55555;52.136;5.424;2023-01-16T01:59:20;99582.09;;;4.26;100.00
68580;BME280;55555;52.136;5.424;2023-01-16T02:01:53;99583.81;;;4.27;100.00
68580;BME280;55555;52.136;5.424;2023-01-16T02:04:27;99580.34;;;4.27;100.00
68580;BME280;55555;52.136;5.424;2023-01-16T02:07:01;99578.59;;;4.26;100.00
68580;BME280;55555;52.136;5.424;2023-01-16T02:09:31;99579.47;;;4.26;100.00
68580;BME280;55555;52.136;5.424;2023-01-16T02:12:02;99561.91;;;4.27;100.00
68580;BME280;55555;52.136;5.424;2023-01-16T02:14:36;99564.47;;;4.30;100.00
68580;BME280;55555;52.136;5.424;2023-01-16T02:17:07;99554.09;;;4.24;100.00
68580;BME280;55555;52.136;5.424;2023-01-16T02:31:46;99520.50;;;4.02;100.00
68580;BME280;55555;52.136;5.424;2023-01-16T02:45:48;99500.19;;;4.08;100.00
68580;BME280;55555;52.136;5.424;2023-01-16T02:48:38;99501.06;;;4.08;100.00
68580;BME280;55555;52.136;5.424;2023-01-16T02:51:34;99502.03;;;4.04;100.00
68580;BME280;55555;52.136;5.424;2023-01-16T02:57:10;99487.31;;;3.98;100.00
68580;BME280;55555;52.136;5.424;2023-01-16T02:59:41;99486.44;;;3.98;100.00
68580;BME280;55555;52.136;5.424;2023-01-16T03:02:09;99486.66;;;3.90;100.00
68580;BME280;55555;52.136;5.424;2023-01-16T03:04:46;99472.69;;;3.88;100.00
68580;BME280;55555;52.136;5.424;2023-01-16T03:11:12;99461.34;;;3.86;100.00
68580;BME280;55555;52.136;5.424;2023-01-16T03:13:58;99448.31;;;3.82;100.00
68580;BME280;55555;52.136;5.424;2023-01-16T03:16:42;99435.16;;;3.82;100.00
68580;BME280;55555;52.136;5.424;2023-01-16T03:20:01;99420.41;;;3.78;100.00
68580;BME280;55555;52.136;5.424;2023-01-16T03:22:45;99421.34;;;3.75;100.00
68580;BME280;55555;52.136;5.424;2023-01-16T03:25:37;99421.47;;;3.71;100.00
68580;BME280;55555;52.136;5.424;2023-01-16T03:31:17;99396.19;;;3.66;100.00
68580;BME280;55555;52.136;5.424;2023-01-16T03:34:15;99398.03;;;3.63;100.00
68580;BME280;55555;52.136;5.424;2023-01-16T03:36:57;99384.13;;;3.59;100.00
68580;BME280;55555;52.136;5.424;2023-01-16T03:39:50;99379.00;;;3.55;100.00
68580;BME280;55555;52.136;5.424;2023-01-16T03:42:58;99377.41;;;3.49;100.00
68580;BME280;55555;52.136;5.424;2023-01-16T03:45:33;99374.81;;;3.48;100.00
68580;BME280;55555;52.136;5.424;2023-01-16T03:48:55;99371.47;;;3.43;100.00
68580;BME280;55555;52.136;5.424;2023-01-16T03:51:22;99357.44;;;3.44;100.00
68580;BME280;55555;52.136;5.424;2023-01-16T03:57:00;99343.69;;;3.34;100.00
68580;BME280;55555;52.136;5.424;2023-01-16T03:59:37;99345.47;;;3.34;100.00
68580;BME280;55555;52.136;5.424;2023-01-16T04:02:19;99338.53;;;3.31;100.00
68580;BME280;55555;52.136;5.424;2023-01-16T04:05:03;99331.53;;;3.30;100.00
68580;BME280;55555;52.136;5.424;2023-01-16T04:10:17;99313.22;;;3.27;100.00
68580;BME280;55555;52.136;5.424;2023-01-16T04:12:52;99307.09;;;3.26;100.00
68580;BME280;55555;52.136;5.424;2023-01-16T04:15:27;99299.34;;;3.23;100.00
68580;BME280;55555;52.136;5.424;2023-01-16T04:17:57;99294.94;;;3.24;100.00
68580;BME280;55555;52.136;5.424;2023-01-16T04:20:25;99286.19;;;3.23;100.00
68580;BME280;55555;52.136;5.424;2023-01-16T04:22:55;99283.50;;;3.25;100.00
68580;BME280;55555;52.136;5.424;2023-01-16T04:25:23;99268.50;;;3.28;100.00
68580;BME280;55555;52.136;5.424;2023-01-16T04:27:51;99257.16;;;3.26;100.00
68580;BME280;55555;52.136;5.424;2023-01-16T04:30:18;99257.94;;;3.30;100.00
68580;BME280;55555;52.136;5.424;2023-01-16T04:32:46;99249.13;;;3.33;100.00
68580;BME280;55555;52.136;5.424;2023-01-16T04:35:13;99238.56;;;3.34;100.00
68580;BME280;55555;52.136;5.424;2023-01-16T04:37:40;99233.22;;;3.36;100.00
68580;BME280;55555;52.136;5.424;2023-01-16T04:40:08;99227.97;;;3.36;100.00
68580;BME280;55555;52.136;5.424;2023-01-16T04:42:35;99214.91;;;3.34;100.00
68580;BME280;55555;52.136;5.424;2023-01-16T04:45:03;99209.53;;;3.37;100.00
68580;BME280;55555;52.136;5.424;2023-01-16T04:47:31;99197.28;;;3.36;100.00
68580;BME280;55555;52.136;5.424;2023-01-16T04:49:58;99188.56;;;3.36;100.00
68580;BME280;55555;52.136;5.424;2023-01-16T04:52:25;99178.13;;;3.34;100.00
68580;BME280;55555;52.136;5.424;2023-01-16T04:54:52;99169.47;;;3.30;100.00
68580;BME280;55555;52.136;5.424;2023-01-16T04:57:19;99159.84;;;3.29;100.00
68580;BME280;55555;52.136;5.424;2023-01-16T04:59:46;99151.06;;;3.30;100.00
68580;BME280;55555;52.136;5.424;2023-01-16T05:02:13;99142.41;;;3.27;100.00
68580;BME280;55555;52.136;5.424;2023-01-16T05:04:41;99133.63;;;3.28;100.00
68580;BME280;55555;52.136;5.424;2023-01-16T05:07:08;99130.16;;;3.26;100.00
68580;BME280;55555;52.136;5.424;2023-01-16T05:09:35;99121.59;;;3.21;100.00
68580;BME280;55555;52.136;5.424;2023-01-16T05:12:02;99114.56;;;3.21;100.00
68580;BME280;55555;52.136;5.424;2023-01-16T05:14:29;99112.84;;;3.20;100.00
68580;BME280;55555;52.136;5.424;2023-01-16T05:16:56;99099.72;;;3.20;100.00
68580;BME280;55555;52.136;5.424;2023-01-16T05:19:23;99098.00;;;3.19;100.00
68580;BME280;55555;52.136;5.424;2023-01-16T05:21:50;99089.28;;;3.17;100.00
68580;BME280;55555;52.136;5.424;2023-01-16T05:24:17;99084.84;;;3.19;100.00
68580;BME280;55555;52.136;5.424;2023-01-16T05:26:45;99077.88;;;3.18;100.00
68580;BME280;55555;52.136;5.424;2023-01-16T05:29:12;99073.47;;;3.19;100.00
68580;BME280;55555;52.136;5.424;2023-01-16T05:31:39;99078.78;;;3.17;100.00
68580;BME280;55555;52.136;5.424;2023-01-16T05:34:07;99071.00;;;3.14;100.00
68580;BME280;55555;52.136;5.424;2023-01-16T05:36:35;99063.06;;;3.16;100.00
68580;BME280;55555;52.136;5.424;2023-01-16T05:39:02;99049.88;;;3.17;100.00
68580;BME280;55555;52.136;5.424;2023-01-16T05:41:29;99033.22;;;3.18;100.00
68580;BME280;55555;52.136;5.424;2023-01-16T05:43:56;99028.84;;;3.17;100.00
68580;BME280;55555;52.136;5.424;2023-01-16T05:46:23;99014.81;;;3.18;100.00
68580;BME280;55555;52.136;5.424;2023-01-16T05:48:51;99009.56;;;3.18;100.00
68580;BME280;55555;52.136;5.424;2023-01-16T05:51:18;99003.34;;;3.21;100.00
68580;BME280;55555;52.136;5.424;2023-01-16T05:53:49;98986.69;;;3.22;100.00
68580;BME280;55555;52.136;5.424;2023-01-16T05:56:20;98969.16;;;3.22;100.00
68580;BME280;55555;52.136;5.424;2023-01-16T05:58:51;98961.94;;;3.27;100.00
68580;BME280;55555;52.136;5.424;2023-01-16T06:01:19;98956.59;;;3.30;100.00
68580;BME280;55555;52.136;5.424;2023-01-16T06:03:47;98946.94;;;3.31;100.00
68580;BME280;55555;52.136;5.424;2023-01-16T06:06:14;98931.84;;;3.36;100.00
68580;BME280;55555;52.136;5.424;2023-01-16T06:08:43;98922.13;;;3.38;100.00
68580;BME280;55555;52.136;5.424;2023-01-16T06:11:11;98913.34;;;3.39;100.00
68580;BME280;55555;52.136;5.424;2023-01-16T06:13:39;98908.84;;;3.43;100.00
68580;BME280;55555;52.136;5.424;2023-01-16T06:16:06;98907.06;;;3.43;100.00
68580;BME280;55555;52.136;5.424;2023-01-16T06:18:33;98896.50;;;3.45;100.00
68580;BME280;55555;52.136;5.424;2023-01-16T06:21:00;98885.91;;;3.46;100.00
68580;BME280;55555;52.136;5.424;2023-01-16T06:23:27;98884.88;;;3.50;100.00
68580;BME280;55555;52.136;5.424;2023-01-16T06:25:56;98874.38;;;3.50;100.00
68580;BME280;55555;52.136;5.424;2023-01-16T06:28:23;98875.06;;;3.55;100.00
68580;BME280;55555;52.136;5.424;2023-01-16T06:30:51;98864.50;;;3.57;100.00
68580;BME280;55555;52.136;5.424;2023-01-16T06:33:19;98865.22;;;3.60;100.00
68580;BME280;55555;52.136;5.424;2023-01-16T06:35:46;98858.13;;;3.62;100.00
68580;BME280;55555;52.136;5.424;2023-01-16T06:38:15;98856.25;;;3.66;100.00
68580;BME280;55555;52.136;5.424;2023-01-16T06:40:43;98852.72;;;3.67;100.00
68580;BME280;55555;52.136;5.424;2023-01-16T06:43:11;98856.94;;;3.71;100.00
68580;BME280;55555;52.136;5.424;2023-01-16T06:45:38;98847.25;;;3.72;100.00
68580;BME280;55555;52.136;5.424;2023-01-16T06:48:05;98845.44;;;3.74;100.00
68580;BME280;55555;52.136;5.424;2023-01-16T06:50:32;98841.91;;;3.75;100.00
68580;BME280;55555;52.136;5.424;2023-01-16T06:52:59;98831.47;;;3.72;100.00
68580;BME280;55555;52.136;5.424;2023-01-16T06:55:26;98834.91;;;3.74;100.00
68580;BME280;55555;52.136;5.424;2023-01-16T06:57:53;98830.50;;;3.74;100.00
68580;BME280;55555;52.136;5.424;2023-01-16T07:00:20;98826.91;;;3.77;100.00
68580;BME280;55555;52.136;5.424;2023-01-16T07:02:52;98824.22;;;3.78;100.00
68580;BME280;55555;52.136;5.424;2023-01-16T07:05:24;98826.78;;;3.80;100.00
68580;BME280;55555;52.136;5.424;2023-01-16T07:07:53;98812.06;;;3.76;100.00
68580;BME280;55555;52.136;5.424;2023-01-16T07:10:21;98801.53;;;3.76;100.00
68580;BME280;55555;52.136;5.424;2023-01-16T07:12:49;98797.13;;;3.76;100.00
68580;BME280;55555;52.136;5.424;2023-01-16T07:15:19;98797.94;;;3.78;100.00
68580;BME280;55555;52.136;5.424;2023-01-16T07:18:05;98786.47;;;3.79;100.00
68580;BME280;55555;52.136;5.424;2023-01-16T07:20:55;98790.88;;;3.79;100.00
68580;BME280;55555;52.136;5.424;2023-01-16T07:23:53;98773.31;;;3.79;100.00
68580;BME280;55555;52.136;5.424;2023-01-16T07:26:25;98748.88;;;3.77;100.00
68580;BME280;55555;52.136;5.424;2023-01-16T07:28:54;98753.06;;;3.81;100.00
68580;BME280;55555;52.136;5.424;2023-01-16T07:31:23;98746.16;;;3.79;100.00
68580;BME280;55555;52.136;5.424;2023-01-16T07:33:51;98732.19;;;3.78;100.00
68580;BME280;55555;52.136;5.424;2023-01-16T07:36:18;98729.63;;;3.77;100.00
68580;BME280;55555;52.136;5.424;2023-01-16T07:38:46;98722.56;;;3.77;100.00
68580;BME280;55555;52.136;5.424;2023-01-16T07:41:13;98722.63;;;3.76;100.00
68580;BME280;55555;52.136;5.424;2023-01-16T07:43:41;98709.66;;;3.71;100.00
68580;BME280;55555;52.136;5.424;2023-01-16T07:46:08;98702.56;;;3.73;100.00
68580;BME280;55555;52.136;5.424;2023-01-16T07:48:35;98688.69;;;3.70;100.00
68580;BME280;55555;52.136;5.424;2023-01-16T07:51:02;98692.06;;;3.73;100.00
68580;BME280;55555;52.136;5.424;2023-01-16T07:53:31;98676.28;;;3.73;100.00
68580;BME280;55555;52.136;5.424;2023-01-16T07:56:00;98670.97;;;3.75;100.00
68580;BME280;55555;52.136;5.424;2023-01-16T07:58:29;98661.47;;;3.71;100.00
68580;BME280;55555;52.136;5.424;2023-01-16T08:00:57;98653.75;;;3.67;100.00
68580;BME280;55555;52.136;5.424;2023-01-16T08:03:24;98645.00;;;3.67;100.00
68580;BME280;55555;52.136;5.424;2023-01-16T08:05:56;98628.41;;;3.65;100.00
68580;BME280;55555;52.136;5.424;2023-01-16T08:08:24;98620.59;;;3.63;100.00
68580;BME280;55555;52.136;5.424;2023-01-16T08:10:53;98616.38;;;3.59;100.00
68580;BME280;55555;52.136;5.424;2023-01-16T08:13:25;98605.06;;;3.57;100.00
68580;BME280;55555;52.136;5.424;2023-01-16T08:16:06;98603.44;;;3.55;100.00
68580;BME280;55555;52.136;5.424;2023-01-16T08:18:33;98590.13;;;3.58;100.00
68580;BME280;55555;52.136;5.424;2023-01-16T08:21:00;98573.50;;;3.57;100.00
68580;BME280;55555;52.136;5.424;2023-01-16T08:23:28;98568.25;;;3.57;100.00
68580;BME280;55555;52.136;5.424;2023-01-16T08:25:55;98556.75;;;3.60;100.00
68580;BME280;55555;52.136;5.424;2023-01-16T08:28:22;98549.84;;;3.57;100.00
68580;BME280;55555;52.136;5.424;2023-01-16T08:30:49;98541.84;;;3.60;100.00
68580;BME280;55555;52.136;5.424;2023-01-16T08:33:16;98528.75;;;3.59;100.00
68580;BME280;55555;52.136;5.424;2023-01-16T08:35:43;98523.31;;;3.63;100.00
68580;BME280;55555;52.136;5.424;2023-01-16T08:38:10;98512.88;;;3.62;100.00
68580;BME280;55555;52.136;5.424;2023-01-16T08:40:37;98525.16;;;3.61;100.00
68580;BME280;55555;52.136;5.424;2023-01-16T08:43:04;98514.44;;;3.66;100.00
68580;BME280;55555;52.136;5.424;2023-01-16T08:45:50;98510.97;;;3.65;100.00
68580;BME280;55555;52.136;5.424;2023-01-16T08:48:53;98503.72;;;3.71;100.00
68580;BME280;55555;52.136;5.424;2023-01-16T08:51:38;98497.53;;;3.72;100.00
68580;BME280;55555;52.136;5.424;2023-01-16T08:54:05;98492.28;;;3.72;100.00
68580;BME280;55555;52.136;5.424;2023-01-16T08:56:33;98493.91;;;3.74;100.00
68580;BME280;55555;52.136;5.424;2023-01-16T08:59:00;98472.88;;;3.74;100.00
68580;BME280;55555;52.136;5.424;2023-01-16T09:01:27;98475.56;;;3.73;100.00
68580;BME280;55555;52.136;5.424;2023-01-16T09:03:54;98475.44;;;3.76;100.00
68580;BME280;55555;52.136;5.424;2023-01-16T09:06:21;98474.59;;;3.75;100.00
68580;BME280;55555;52.136;5.424;2023-01-16T09:08:49;98463.16;;;3.76;100.00
68580;BME280;55555;52.136;5.424;2023-01-16T09:11:16;98463.84;;;3.80;100.00
68580;BME280;55555;52.136;5.424;2023-01-16T09:14:01;98451.63;;;3.79;100.00
68580;BME280;55555;52.136;5.424;2023-01-16T09:16:36;98451.56;;;3.80;100.00
68580;BME280;55555;52.136;5.424;2023-01-16T09:19:03;98446.16;;;3.83;100.00
68580;BME280;55555;52.136;5.424;2023-01-16T09:21:30;98431.25;;;3.84;100.00
68580;BME280;55555;52.136;5.424;2023-01-16T09:23:58;98426.69;;;3.87;100.00
68580;BME280;55555;52.136;5.424;2023-01-16T09:26:25;98421.38;;;3.89;100.00
68580;BME280;55555;52.136;5.424;2023-01-16T09:28:52;98411.53;;;3.92;100.00
68580;BME280;55555;52.136;5.424;2023-01-16T09:31:19;98408.91;;;3.92;100.00
68580;BME280;55555;52.136;5.424;2023-01-16T09:33:46;98401.75;;;3.96;100.00
68580;BME280;55555;52.136;5.424;2023-01-16T09:36:14;98399.03;;;3.97;100.00
68580;BME280;55555;52.136;5.424;2023-01-16T09:38:42;98398.97;;;3.99;100.00
68580;BME280;55555;52.136;5.424;2023-01-16T09:41:14;98388.22;;;4.03;100.00
68580;BME280;55555;52.136;5.424;2023-01-16T09:44:05;98383.03;;;4.02;100.00
68580;BME280;55555;52.136;5.424;2023-01-16T09:46:38;98379.34;;;4.06;100.00
68580;BME280;55555;52.136;5.424;2023-01-16T09:49:36;98369.53;;;4.10;100.00
68580;BME280;55555;52.136;5.424;2023-01-16T09:52:18;98378.09;;;4.13;100.00
68580;BME280;55555;52.136;5.424;2023-01-16T09:55:21;98366.66;;;4.14;100.00
68580;BME280;55555;52.136;5.424;2023-01-16T09:58:15;98364.88;;;4.15;100.00
68580;BME280;55555;52.136;5.424;2023-01-16T10:01:16;98354.28;;;4.16;100.00
68580;BME280;55555;52.136;5.424;2023-01-16T10:03:47;98358.56;;;4.19;100.00
68580;BME280;55555;52.136;5.424;2023-01-16T10:09:01;98352.19;;;4.23;100.00
68580;BME280;55555;52.136;5.424;2023-01-16T10:17:43;98335.25;;;4.28;100.00
68580;BME280;55555;52.136;5.424;2023-01-16T10:20:54;98334.19;;;4.32;100.00
68580;BME280;55555;52.136;5.424;2023-01-16T10:24:02;98320.94;;;4.34;100.00
68580;BME280;55555;52.136;5.424;2023-01-16T10:26:59;98322.81;;;4.32;100.00
68580;BME280;55555;52.136;5.424;2023-01-16T10:29:34;98310.25;;;4.37;100.00
68580;BME280;55555;52.136;5.424;2023-01-16T10:32:12;98314.81;;;4.33;100.00
68580;BME280;55555;52.136;5.424;2023-01-16T10:35:17;98313.22;;;4.31;100.00
68580;BME280;55555;52.136;5.424;2023-01-16T10:37:56;98307.16;;;4.29;100.00
68580;BME280;55555;52.136;5.424;2023-01-16T10:40:51;98301.06;;;4.28;100.00
68580;BME280;55555;52.136;5.424;2023-01-16T10:43:34;98292.44;;;4.25;100.00
68580;BME280;55555;52.136;5.424;2023-01-16T10:46:22;98290.81;;;4.22;100.00
68580;BME280;55555;52.136;5.424;2023-01-16T10:49:18;98289.22;;;4.20;100.00
68580;BME280;55555;52.136;5.424;2023-01-16T10:51:56;98279.53;;;4.20;100.00
68580;BME280;55555;52.136;5.424;2023-01-16T10:54:25;98272.50;;;4.21;100.00
68580;BME280;55555;52.136;5.424;2023-01-16T10:56:52;98263.75;;;4.20;100.00
68580;BME280;55555;52.136;5.424;2023-01-16T10:59:20;98268.31;;;4.17;100.00
68580;BME280;55555;52.136;5.424;2023-01-16T11:01:48;98261.19;;;4.19;100.00
68580;BME280;55555;52.136;5.424;2023-01-16T11:04:18;98253.16;;;4.22;100.00
68580;BME280;55555;52.136;5.424;2023-01-16T11:06:46;98255.06;;;4.18;100.00
68580;BME280;55555;52.136;5.424;2023-01-16T11:11:41;98242.00;;;4.17;100.00
68580;BME280;55555;52.136;5.424;2023-01-16T11:14:41;98239.28;;;4.18;100.00
68580;BME280;55555;52.136;5.424;2023-01-16T11:17:32;98231.59;;;4.14;100.00
68580;BME280;55555;52.136;5.424;2023-01-16T11:20:24;98225.28;;;4.18;100.00
68580;BME280;55555;52.136;5.424;2023-01-16T11:22:59;98210.25;;;4.20;100.00
68580;BME280;55555;52.136;5.424;2023-01-16T11:25:49;98217.31;;;4.19;100.00
68580;BME280;55555;52.136;5.424;2023-01-16T11:28:22;98205.94;;;4.19;100.00
68580;BME280;55555;52.136;5.424;2023-01-16T11:30:55;98200.41;;;4.23;100.00
68580;BME280;55555;52.136;5.424;2023-01-16T11:33:26;98193.44;;;4.22;100.00
68580;BME280;55555;52.136;5.424;2023-01-16T11:36:02;98188.97;;;4.24;100.00
68580;BME280;55555;52.136;5.424;2023-01-16T11:38:34;98178.38;;;4.26;100.00
68580;BME280;55555;52.136;5.424;2023-01-16T11:41:05;98167.69;;;4.29;100.00
68580;BME280;55555;52.136;5.424;2023-01-16T11:43:35;98167.34;;;4.35;100.00
68580;BME280;55555;52.136;5.424;2023-01-16T11:46:33;98158.03;;;4.45;100.00
68580;BME280;55555;52.136;5.424;2023-01-16T11:49:14;98158.31;;;4.56;100.00
68580;BME280;55555;52.136;5.424;2023-01-16T11:51:43;98152.09;;;4.74;100.00
68580;BME280;55555;52.136;5.424;2023-01-16T11:54:15;98142.91;;;4.82;100.00
68580;BME280;55555;52.136;5.424;2023-01-16T11:56:50;98139.59;;;4.94;100.00
68580;BME280;55555;52.136;5.424;2023-01-16T12:11:06;98101.34;;;5.18;100.00
68580;BME280;55555;52.136;5.424;2023-01-16T12:25:32;98075.25;;;5.13;100.00
68580;BME280;55555;52.136;5.424;2023-01-16T12:37:12;98058.63;;;4.97;100.00
68580;BME280;55555;52.136;5.424;2023-01-16T12:40:26;98051.81;;;4.93;100.00
68580;BME280;55555;52.136;5.424;2023-01-16T12:43:25;98045.53;;;4.96;100.00
68580;BME280;55555;52.136;5.424;2023-01-16T12:49:51;98048.41;;;4.91;100.00
68580;BME280;55555;52.136;5.424;2023-01-16T12:52:55;98041.44;;;4.90;100.00
68580;BME280;55555;52.136;5.424;2023-01-16T12:58:27;98026.03;;;4.98;100.00
68580;BME280;55555;52.136;5.424;2023-01-16T13:01:25;98016.25;;;5.00;100.00
68580;BME280;55555;52.136;5.424;2023-01-16T13:04:27;98014.31;;;5.04;100.00
68580;BME280;55555;52.136;5.424;2023-01-16T13:06:59;98012.38;;;5.07;100.00
68580;BME280;55555;52.136;5.424;2023-01-16T13:09:36;98013.38;;;5.05;100.00
68580;BME280;55555;52.136;5.424;2023-01-16T13:12:23;98013.38;;;5.05;100.00
68580;BME280;55555;52.136;5.424;2023-01-16T13:15:17;98002.84;;;5.05;100.00
68580;BME280;55555;52.136;5.424;2023-01-16T13:17:52;98000.59;;;5.13;100.00
68580;BME280;55555;52.136;5.424;2023-01-16T13:20:25;97996.09;;;5.15;100.00
68580;BME280;55555;52.136;5.424;2023-01-16T13:23:06;97990.81;;;5.15;100.00
68580;BME280;55555;52.136;5.424;2023-01-16T13:25:46;97981.22;;;5.14;100.00
68580;BME280;55555;52.136;5.424;2023-01-16T13:31:37;97980.00;;;5.20;100.00
68580;BME280;55555;52.136;5.424;2023-01-16T13:34:13;97973.63;;;5.24;100.00
68580;BME280;55555;52.136;5.424;2023-01-16T13:40:37;97973.53;;;5.25;100.00
68580;BME280;55555;52.136;5.424;2023-01-16T13:43:37;97970.13;;;5.23;100.00
68580;BME280;55555;52.136;5.424;2023-01-16T13:46:26;97978.31;;;5.19;100.00
68580;BME280;55555;52.136;5.424;2023-01-16T13:48:59;97963.84;;;5.26;100.00
68580;BME280;55555;52.136;5.424;2023-01-16T13:51:28;97966.72;;;5.21;100.00
68580;BME280;55555;52.136;5.424;2023-01-16T13:53:58;97961.28;;;5.24;100.00
68580;BME280;55555;52.136;5.424;2023-01-16T13:56:29;97963.06;;;5.24;100.00
68580;BME280;55555;52.136;5.424;2023-01-16T13:59:04;97957.81;;;5.24;100.00
68580;BME280;55555;52.136;5.424;2023-01-16T14:04:11;97957.97;;;5.21;100.00
68580;BME280;55555;52.136;5.424;2023-01-16T14:06:55;97946.69;;;5.19;100.00
68580;BME280;55555;52.136;5.424;2023-01-16T14:12:58;97946.88;;;5.16;100.00
68580;BME280;55555;52.136;5.424;2023-01-16T14:15:24;97941.88;;;5.11;100.00
68580;BME280;55555;52.136;5.424;2023-01-16T14:18:18;97935.47;;;5.15;100.00
68580;BME280;55555;52.136;5.424;2023-01-16T14:23:36;97935.41;;;5.17;100.00
68580;BME280;55555;52.136;5.424;2023-01-16T14:28:56;97925.28;;;5.09;100.00
68580;BME280;55555;52.136;5.424;2023-01-16T14:31:28;97932.25;;;5.10;100.00
68580;BME280;55555;52.136;5.424;2023-01-16T14:34:25;97925.13;;;5.12;100.00
68580;BME280;55555;52.136;5.424;2023-01-16T14:36:59;97927.00;;;5.10;100.00
68580;BME280;55555;52.136;5.424;2023-01-16T14:39:37;97932.00;;;5.14;100.00
68580;BME280;55555;52.136;5.424;2023-01-16T14:42:16;97933.09;;;5.10;100.00
68580;BME280;55555;52.136;5.424;2023-01-16T14:45:29;97926.25;;;5.08;100.00
68580;BME280;55555;52.136;5.424;2023-01-16T14:53:59;97917.84;;;5.01;100.00
68580;BME280;55555;52.136;5.424;2023-01-16T14:57:13;97913.25;;;5.05;100.00
68580;BME280;55555;52.136;5.424;2023-01-16T14:59:50;97921.16;;;5.05;100.00
68580;BME280;55555;52.136;5.424;2023-01-16T15:05:22;97927.38;;;5.04;100.00
68580;BME280;55555;52.136;5.424;2023-01-16T15:08:32;97917.00;;;5.01;100.00
68580;BME280;55555;52.136;5.424;2023-01-16T15:11:07;97922.00;;;5.05;100.00
68580;BME280;55555;52.136;5.424;2023-01-16T15:14:13;97915.13;;;5.03;100.00
68580;BME280;55555;52.136;5.424;2023-01-16T15:17:05;97915.13;;;5.03;100.00
68580;BME280;55555;52.136;5.424;2023-01-16T15:20:29;97911.81;;;4.99;100.00
68580;BME280;55555;52.136;5.424;2023-01-16T15:23:33;97917.16;;;4.98;100.00
68580;BME280;55555;52.136;5.424;2023-01-16T15:31:20;97923.84;;;4.89;100.00
68580;BME280;55555;52.136;5.424;2023-01-16T15:41:55;97938.22;;;4.84;100.00
68580;BME280;55555;52.136;5.424;2023-01-16T15:44:46;97930.16;;;4.87;100.00
68580;BME280;55555;52.136;5.424;2023-01-16T15:47:49;97923.59;;;4.78;100.00
68580;BME280;55555;52.136;5.424;2023-01-16T15:50:58;97926.31;;;4.76;100.00
68580;BME280;55555;52.136;5.424;2023-01-16T15:53:32;97925.59;;;4.74;100.00
68580;BME280;55555;52.136;5.424;2023-01-16T15:58:52;97910.63;;;4.75;100.00